Time;durP1;ratioP1;P1;durP2;ratioP2;P2;SDS_P1;SDS_P2;PMS_P1;PMS_P2;Temp;Humidity;BMP_temperature;BMP_pressure;BME280_temperature;BME280_humidity;BME280_pressure;Samples;Min_cycle;Max_cycle;Signal;HPM_P1;HPM_P2
2022/01/12 00:01:11;;;;;;;10.05;6.65;;;-0.80;99.90;;;;;;4943227;29;20050;-79
2022/01/12 00:03:40;;;;;;;10.48;6.32;;;-0.70;99.90;;;;;;4929138;29;20214;-80
2022/01/12 00:06:06;;;;;;;10.90;6.35;;;-0.70;99.90;;;;;;4948830;29;20054;-80
2022/01/12 00:08:35;;;;;;;12.93;6.72;;;-0.80;99.90;;;;;;4967715;29;20036;-80
2022/01/12 00:11:03;;;;;;;14.00;7.40;;;-0.80;99.90;;;;;;4968206;29;20038;-79
2022/01/12 00:13:34;;;;;;;11.48;6.85;;;-0.90;99.90;;;;;;4968337;28;20321;-79
2022/01/12 00:16:01;;;;;;;11.25;6.82;;;-0.90;99.90;;;;;;4982291;28;20126;-79
2022/01/12 00:18:31;;;;;;;12.18;6.88;;;-1.00;99.90;;;;;;4969108;29;20027;-80
2022/01/12 00:20:58;;;;;;;14.23;7.95;;;-1.00;99.90;;;;;;4966766;29;20031;-80
2022/01/12 00:23:26;;;;;;;11.38;7.07;;;-1.10;99.90;;;;;;4966703;28;20050;-80
2022/01/12 00:25:59;;;;;;;;;;;-1.20;99.90;;;;;;4968564;28;20099;-80
2022/01/12 00:34:03;;;;;;;12.93;6.95;;;-1.40;99.90;;;;;;4982602;28;20031;-80
2022/01/12 00:36:35;;;;;;;13.77;7.70;;;-1.30;99.90;;;;;;4966889;29;20047;-79
2022/01/12 00:39:25;;;;;;;14.63;7.57;;;-1.30;99.90;;;;;;4982947;28;20058;-80
2022/01/12 00:41:51;;;;;;;13.65;8.48;;;-1.40;99.90;;;;;;4953829;29;20035;-79
2022/01/12 00:44:25;;;;;;;13.32;7.30;;;-1.40;99.90;;;;;;4966849;29;20031;-79
2022/01/12 00:46:52;;;;;;;11.25;7.57;;;-1.30;99.90;;;;;;4966083;29;20046;-79
2022/01/12 00:49:19;;;;;;;11.63;7.13;;;-1.40;99.90;;;;;;4966930;29;20213;-79
2022/01/12 00:51:47;;;;;;;11.45;7.00;;;-1.50;99.90;;;;;;4967366;29;20041;-80
2022/01/12 00:54:13;;;;;;;12.77;7.68;;;-1.60;99.90;;;;;;4967271;29;20327;-80
2022/01/12 00:56:39;;;;;;;14.30;7.43;;;-1.60;99.90;;;;;;4967727;29;20043;-79
2022/01/12 00:59:05;;;;;;;13.32;7.53;;;-1.40;99.90;;;;;;4967180;29;20131;-79
2022/01/12 01:01:32;;;;;;;10.88;6.88;;;-1.50;99.90;;;;;;4955322;28;20054;-79
2022/01/12 01:03:57;;;;;;;11.27;7.45;;;-1.50;99.90;;;;;;4946268;29;20087;-79
2022/01/12 01:06:24;;;;;;;13.23;7.40;;;-1.60;99.90;;;;;;4962600;29;20035;-79
2022/01/12 01:08:51;;;;;;;15.35;8.43;;;-1.60;99.90;;;;;;4962388;29;20027;-79
2022/01/12 01:11:23;;;;;;;12.23;7.22;;;-1.70;99.90;;;;;;4962298;29;20067;-79
2022/01/12 01:13:59;;;;;;;12.45;7.40;;;-1.70;99.90;;;;;;4962563;29;20397;-78
2022/01/12 01:27:15;;;;;;;14.27;8.18;;;-1.70;99.90;;;;;;4962456;29;20135;-79
2022/01/12 01:29:41;;;;;;;12.10;7.30;;;-1.70;99.90;;;;;;4947872;29;20032;-79
2022/01/12 01:32:08;;;;;;;14.60;8.27;;;-1.80;99.90;;;;;;4961921;29;20078;-79
2022/01/12 01:34:42;;;;;;;13.57;7.95;;;-1.70;99.90;;;;;;4962280;29;20365;-79
2022/01/12 01:37:12;;;;;;;12.00;7.85;;;-1.70;99.90;;;;;;4962148;29;20055;-80
2022/01/12 01:39:38;;;;;;;13.10;7.28;;;-1.70;99.90;;;;;;4947635;29;20028;-79
2022/01/12 01:42:15;;;;;;;14.75;8.98;;;-1.60;99.90;;;;;;4946125;29;20102;-79
2022/01/12 01:55:28;;;;;;;12.32;7.05;;;-1.70;99.90;;;;;;4961036;29;20374;-79
2022/01/12 01:57:55;;;;;;;13.68;8.15;;;-1.80;99.90;;;;;;4961163;29;20116;-80
2022/01/12 02:00:25;;;;;;;14.07;8.18;;;-1.80;99.90;;;;;;4944336;29;20043;-80
2022/01/12 02:02:53;;;;;;;13.68;7.60;;;-1.70;99.90;;;;;;4961207;29;20110;-79
2022/01/12 02:05:21;;;;;;;13.07;7.60;;;-1.70;99.90;;;;;;4940064;29;20039;-80
2022/01/12 02:07:47;;;;;;;13.10;7.40;;;-1.60;99.90;;;;;;4925101;29;20043;-80
2022/01/12 02:10:15;;;;;;;11.00;6.75;;;-1.50;99.90;;;;;;4909142;29;20036;-80
2022/01/12 02:12:46;;;;;;;14.10;7.63;;;-1.50;99.90;;;;;;4909580;29;20036;-79
2022/01/12 02:15:19;;;;;;;15.98;8.05;;;-1.60;99.90;;;;;;4927611;29;20140;-79
2022/01/12 02:37:15;;;;;;;16.08;8.57;;;-1.50;99.90;;;;;;4967185;28;20050;-79
2022/01/12 02:39:56;;;;;;;;;;;-1.40;99.90;;;;;;4984719;28;20034;-79
2022/01/12 02:42:23;;;;;;;14.65;8.32;;;-1.50;99.90;;;;;;4983611;28;19906;-78
2022/01/12 02:55:49;;;;;;;14.27;8.23;;;-1.80;99.90;;;;;;4966878;28;20057;-79
2022/01/12 02:58:15;;;;;;;16.00;7.68;;;-1.90;99.90;;;;;;4965842;28;20038;-78
2022/01/12 03:03:21;;;;;;;22.98;9.48;;;-1.90;99.90;;;;;;4965973;28;20031;-78
2022/01/12 03:05:56;;;;;;;24.92;9.75;;;-1.90;99.90;;;;;;4983954;28;20051;-79
2022/01/12 03:08:25;;;;;;;20.50;9.82;;;-1.90;99.90;;;;;;4965729;28;20066;-79
2022/01/12 03:10:51;;;;;;;15.73;8.65;;;-1.90;99.90;;;;;;4966427;28;20183;-79
2022/01/12 03:13:17;;;;;;;16.77;9.32;;;-1.90;99.90;;;;;;4978570;28;20023;-79
2022/01/12 03:15:42;;;;;;;17.10;8.68;;;-2.00;99.90;;;;;;4946867;29;20031;-79
2022/01/12 03:18:15;;;;;;;18.23;9.50;;;-1.90;99.90;;;;;;4946351;29;20027;-79
2022/01/12 03:20:44;;;;;;;16.67;8.93;;;-2.00;99.90;;;;;;4947129;29;20050;-78
2022/01/12 03:23:10;;;;;;;18.42;9.02;;;-2.00;99.90;;;;;;4946320;29;20222;-79
2022/01/12 03:25:36;;;;;;;13.73;7.97;;;-2.10;99.90;;;;;;4931028;29;20037;-79
2022/01/12 03:28:04;;;;;;;18.23;8.20;;;-2.00;99.90;;;;;;4946596;29;20207;-79
2022/01/12 03:30:37;;;;;;;;;;;-2.00;99.90;;;;;;4947500;29;20035;-79
2022/01/12 03:36:12;;;;;;;16.92;8.38;;;-2.00;99.90;;;;;;4927466;29;20047;-79
2022/01/12 03:38:37;;;;;;;20.13;9.57;;;-2.10;99.90;;;;;;4966410;28;20254;-79
2022/01/12 03:41:03;;;;;;;16.33;8.70;;;-1.90;99.90;;;;;;4950178;29;20075;-80
2022/01/12 03:43:29;;;;;;;18.92;9.20;;;-1.90;99.90;;;;;;4967447;29;20033;-80
2022/01/12 03:45:55;;;;;;;15.73;8.05;;;-2.00;99.90;;;;;;4950515;29;20026;-79
2022/01/12 03:48:21;;;;;;;18.15;8.63;;;-1.90;99.90;;;;;;4950239;29;20030;-80
2022/01/12 03:50:48;;;;;;;15.68;9.23;;;-2.00;99.90;;;;;;4950250;29;20027;-78
2022/01/12 03:53:15;;;;;;;18.02;9.40;;;-2.10;99.90;;;;;;4949739;29;20026;-79
2022/01/12 03:55:43;;;;;;;17.70;8.63;;;-2.10;99.90;;;;;;4950344;29;20122;-78
2022/01/12 03:58:11;;;;;;;15.32;8.48;;;-2.20;99.90;;;;;;4949793;29;20098;-78
2022/01/12 04:00:37;;;;;;;;;;;-2.20;99.90;;;;;;4934832;29;20035;-78
2022/01/12 04:03:05;;;;;;;16.02;8.73;;;-2.20;99.90;;;;;;4950235;29;20077;-79
2022/01/12 04:08:20;;;;;;;15.40;8.88;;;-2.30;99.90;;;;;;4950427;29;20157;-79
2022/01/12 04:10:55;;;;;;;16.35;9.25;;;-2.30;99.90;;;;;;4950222;29;20031;-78
2022/01/12 04:13:23;;;;;;;14.07;8.38;;;-2.30;99.90;;;;;;4954955;28;20030;-79
2022/01/12 04:15:54;;;;;;;16.27;9.32;;;-2.30;99.90;;;;;;4969140;28;20069;-78
2022/01/12 04:18:20;;;;;;;14.30;9.02;;;-2.40;99.90;;;;;;4986220;28;20429;-79
2022/01/12 04:20:47;;;;;;;19.00;9.75;;;-2.30;99.90;;;;;;4953439;28;20031;-80
2022/01/12 04:23:18;;;;;;;15.40;9.15;;;-2.30;99.90;;;;;;4986222;28;20104;-80
2022/01/12 04:25:49;;;;;;;17.05;10.05;;;-2.30;99.90;;;;;;4985427;28;20429;-79
2022/01/12 04:28:16;;;;;;;16.98;9.27;;;-2.30;99.90;;;;;;4986024;28;20027;-78
2022/01/12 04:30:43;;;;;;;17.00;9.68;;;-2.30;99.90;;;;;;4953063;28;20110;-79
2022/01/12 04:33:10;;;;;;;18.35;10.43;;;-2.30;99.90;;;;;;4985393;28;20328;-79
2022/01/12 04:35:47;;;;;;;17.83;10.05;;;-2.40;99.90;;;;;;4985768;28;20065;-79
2022/01/12 04:38:14;;;;;;;18.52;10.10;;;-2.30;99.90;;;;;;4984308;28;20340;-79
2022/01/12 04:40:40;;;;;;;18.88;9.73;;;-2.20;99.90;;;;;;4952520;28;20332;-80
2022/01/12 04:43:08;;;;;;;19.15;9.30;;;-2.30;99.90;;;;;;4985864;28;20069;-80
2022/01/12 04:50:45;;;;;;;17.13;9.68;;;-2.30;99.90;;;;;;4968010;28;20143;-80
2022/01/12 04:53:12;;;;;;;16.02;10.10;;;-2.40;99.90;;;;;;4968058;28;20041;-79
2022/01/12 04:55:38;;;;;;;20.77;11.10;;;-2.40;99.90;;;;;;4968568;28;20306;-79
2022/01/12 04:58:05;;;;;;;19.40;10.63;;;-2.40;99.90;;;;;;4968634;28;20062;-78
2022/01/12 05:00:33;;;;;;;22.30;11.25;;;-2.40;99.90;;;;;;4985416;28;20050;-79
2022/01/12 05:14:42;;;;;;;18.80;10.35;;;-2.40;99.90;;;;;;4876404;29;20384;-78
2022/01/12 05:17:08;;;;;;;20.33;10.52;;;-2.40;99.90;;;;;;4952527;29;20043;-79
2022/01/12 05:19:34;;;;;;;19.50;10.88;;;-2.40;99.90;;;;;;4948687;29;20031;-79
2022/01/12 05:22:00;;;;;;;21.25;11.02;;;-2.50;99.90;;;;;;4948708;29;20035;-79
2022/01/12 05:24:26;;;;;;;23.65;11.30;;;-2.40;99.90;;;;;;4964285;29;20142;-79
2022/01/12 05:26:52;;;;;;;21.55;10.80;;;-2.50;99.90;;;;;;4966980;29;20045;-79
2022/01/12 05:29:17;;;;;;;22.25;11.55;;;-2.40;99.90;;;;;;4964115;28;20310;-78
2022/01/12 05:31:43;;;;;;;26.95;12.50;;;-2.40;99.90;;;;;;4948372;29;20027;-78
2022/01/12 05:34:10;;;;;;;21.75;11.25;;;-2.40;99.90;;;;;;4948123;29;20302;-78
2022/01/12 05:36:36;;;;;;;26.30;12.07;;;-2.40;99.90;;;;;;4964203;28;20344;-77
2022/01/12 05:39:03;;;;;;;31.02;12.93;;;-2.50;99.90;;;;;;4948386;29;20031;-78
2022/01/12 05:41:29;;;;;;;21.95;11.68;;;-2.50;99.90;;;;;;4948469;29;20031;-77
2022/01/12 05:43:57;;;;;;;21.67;11.90;;;-2.60;99.90;;;;;;4964424;28;20090;-78
2022/01/12 05:46:26;;;;;;;;;;;-2.50;99.90;;;;;;4948419;29;20066;-77
2022/01/12 05:51:44;;;;;;;22.55;11.57;;;-2.60;99.90;;;;;;4948170;29;20031;-76
2022/01/12 05:54:10;;;;;;;22.42;11.77;;;-2.60;99.90;;;;;;4932368;29;20038;-78
2022/01/12 05:56:36;;;;;;;21.48;11.98;;;-2.50;99.90;;;;;;4948159;29;20030;-78
2022/01/12 05:59:05;;;;;;;20.70;11.85;;;-2.60;99.90;;;;;;4948017;29;20217;-78
2022/01/12 06:01:31;;;;;;;21.88;12.73;;;-2.60;99.90;;;;;;4951795;28;20269;-78
2022/01/12 06:03:58;;;;;;;20.50;12.00;;;-2.50;99.90;;;;;;4967137;28;20317;-79
2022/01/12 06:06:24;;;;;;;22.20;11.63;;;-2.40;99.90;;;;;;4966572;28;20033;-78
2022/01/12 06:08:52;;;;;;;23.70;12.02;;;-2.50;99.90;;;;;;4967056;28;20057;-78
2022/01/12 06:11:19;;;;;;;20.33;11.98;;;-2.40;99.90;;;;;;4966558;28;20034;-78
2022/01/12 06:13:46;;;;;;;20.60;12.02;;;-2.50;99.90;;;;;;4950905;28;20026;-78
2022/01/12 06:16:12;;;;;;;19.70;12.02;;;-2.50;99.90;;;;;;4965932;28;20051;-80
2022/01/12 06:18:40;;;;;;;23.70;13.23;;;-2.50;99.90;;;;;;4951144;28;20033;-78
2022/01/12 06:21:06;;;;;;;20.95;11.95;;;-2.50;99.90;;;;;;4983990;28;20054;-78
2022/01/12 06:23:58;;;;;;;21.77;12.48;;;-2.50;99.90;;;;;;4980261;28;20042;-78
2022/01/12 06:26:26;;;;;;;22.50;12.25;;;-2.60;99.90;;;;;;4966501;28;20090;-77
2022/01/12 06:29:40;;;;;;;20.60;11.82;;;-2.50;99.90;;;;;;4950825;28;20035;-78
2022/01/12 06:31:44;;;;;;;24.65;13.20;;;-2.60;99.90;;;;;;4960673;28;20047;-78
2022/01/12 06:34:11;;;;;;;19.85;12.07;;;-2.40;99.90;;;;;;4984153;28;20042;-78
2022/01/12 06:36:37;;;;;;;21.75;12.85;;;-2.40;99.90;;;;;;4962283;29;20042;-79
2022/01/12 06:39:10;;;;;;;22.48;12.05;;;-2.60;99.90;;;;;;4947588;29;20090;-78
2022/01/12 06:41:37;;;;;;;21.60;12.43;;;-2.60;99.90;;;;;;4962770;29;20106;-77
2022/01/12 06:44:04;;;;;;;23.35;12.25;;;-2.70;99.90;;;;;;4963422;29;20307;-79
2022/01/12 06:46:31;;;;;;;24.08;12.93;;;-2.90;99.90;;;;;;4945900;29;20106;-76
2022/01/12 06:48:57;;;;;;;21.10;11.85;;;-2.70;99.90;;;;;;4963011;28;20217;-77
2022/01/12 06:51:24;;;;;;;25.90;13.60;;;-2.70;99.90;;;;;;4946394;29;20275;-78
2022/01/12 06:53:53;;;;;;;23.33;12.98;;;-2.80;99.90;;;;;;4946885;29;20266;-78
2022/01/12 06:56:19;;;;;;;21.80;12.57;;;-2.80;99.90;;;;;;4963682;29;20055;-77
2022/01/12 06:58:50;;;;;;;23.40;13.43;;;-2.80;99.90;;;;;;4962838;29;20035;-77
2022/01/12 07:01:16;;;;;;;23.77;13.75;;;-2.70;99.90;;;;;;4960982;29;20045;-79
2022/01/12 07:03:46;;;;;;;26.25;14.38;;;-2.60;99.90;;;;;;4962066;29;20214;-77
2022/01/12 07:06:12;;;;;;;26.30;13.85;;;-2.60;99.90;;;;;;4956094;29;20030;-77
2022/01/12 07:08:39;;;;;;;25.38;14.80;;;-2.50;99.90;;;;;;4942582;29;20073;-78
2022/01/12 07:11:09;;;;;;;27.73;14.75;;;-2.50;99.90;;;;;;4960252;29;20042;-77
2022/01/12 07:13:35;;;;;;;24.80;14.13;;;-2.60;99.90;;;;;;4946082;28;20706;-77
2022/01/12 07:16:01;;;;;;;27.33;14.23;;;-2.60;99.90;;;;;;4961992;29;20062;-76
2022/01/12 07:18:29;;;;;;;26.13;14.18;;;-2.70;99.90;;;;;;4962249;29;20340;-78
2022/01/12 07:20:56;;;;;;;20.67;11.13;;;-2.70;99.90;;;;;;4962409;29;20066;-77
2022/01/12 07:23:22;;;;;;;30.63;15.88;;;-2.60;99.90;;;;;;4963009;28;20019;-78
2022/01/12 07:25:49;;;;;;;28.30;15.32;;;-2.60;99.90;;;;;;4962452;29;20039;-78
2022/01/12 07:28:15;;;;;;;31.40;17.65;;;-2.60;99.90;;;;;;4963489;28;20028;-78
2022/01/12 07:30:40;;;;;;;36.15;19.23;;;-2.60;99.90;;;;;;4961283;28;20047;-78
2022/01/12 07:33:06;;;;;;;32.30;16.75;;;-2.60;99.90;;;;;;4958427;29;20132;-77
2022/01/12 07:35:32;;;;;;;33.28;16.33;;;-2.50;99.90;;;;;;4945498;28;20031;-77
2022/01/12 07:37:58;;;;;;;35.35;17.58;;;-2.30;99.90;;;;;;4965776;28;20041;-77
2022/01/12 07:40:23;;;;;;;32.90;17.60;;;-2.10;99.90;;;;;;4966318;28;20026;-79
2022/01/12 07:42:51;;;;;;;32.55;18.55;;;-2.00;99.90;;;;;;4983971;28;20335;-78
2022/01/12 07:45:18;;;;;;;;;;;-2.00;99.90;;;;;;4966206;28;20050;-73
2022/01/12 07:47:44;;;;;;;33.25;17.38;;;-2.00;99.90;;;;;;4983755;28;19929;-78
2022/01/12 07:50:11;;;;;;;32.33;17.73;;;-1.90;99.90;;;;;;4984058;28;20309;-78
2022/01/12 07:52:37;;;;;;;31.33;16.10;;;-1.80;99.90;;;;;;4966163;28;20062;-77
2022/01/12 07:55:05;;;;;;;30.98;17.55;;;-1.80;99.90;;;;;;4982049;28;20053;-78
2022/01/12 07:57:30;;;;;;;32.60;18.35;;;-1.70;99.90;;;;;;4975635;28;20081;-78
2022/01/12 07:59:56;;;;;;;30.95;17.23;;;-1.60;99.90;;;;;;4984572;28;20186;-79
2022/01/12 08:02:23;;;;;;;33.67;17.27;;;-1.40;99.90;;;;;;4949534;28;20043;-78
2022/01/12 08:04:49;;;;;;;30.10;16.95;;;-1.30;99.90;;;;;;4966273;28;20086;-77
2022/01/12 08:07:15;;;;;;;31.95;17.63;;;-1.10;99.90;;;;;;4966924;28;20027;-78
2022/01/12 08:09:42;;;;;;;28.38;17.33;;;-1.00;99.90;;;;;;4966033;28;20029;-77
2022/01/12 08:12:09;;;;;;;31.40;16.33;;;-0.80;99.90;;;;;;4983994;28;20018;-76
2022/01/12 08:14:36;;;;;;;28.70;16.27;;;-0.60;99.90;;;;;;4966162;28;20019;-79
2022/01/12 08:17:02;;;;;;;26.75;16.48;;;-0.60;99.90;;;;;;4983512;28;20038;-79
2022/01/12 08:19:29;;;;;;;27.17;15.52;;;-0.60;99.90;;;;;;4966896;28;20047;-78
2022/01/12 08:21:55;;;;;;;25.50;14.73;;;-0.60;99.90;;;;;;4966347;28;20233;-78
2022/01/12 08:24:21;;;;;;;27.30;16.17;;;-0.50;99.90;;;;;;4983058;28;20033;-78
2022/01/12 08:26:49;;;;;;;27.55;15.40;;;-0.40;99.90;;;;;;4969579;28;20034;-79
2022/01/12 08:29:16;;;;;;;23.00;14.73;;;-0.30;99.90;;;;;;4967845;28;20031;-78
2022/01/12 08:31:43;;;;;;;26.50;15.50;;;-0.10;99.90;;;;;;4968682;28;20047;-79
2022/01/12 08:34:10;;;;;;;25.63;15.57;;;0.20;99.90;;;;;;4969775;28;20094;-78
2022/01/12 08:36:40;;;;;;;26.60;15.65;;;0.40;99.90;;;;;;4986278;28;20051;-78
2022/01/12 08:39:08;;;;;;;23.25;15.13;;;0.50;99.90;;;;;;4964719;29;20027;-79
2022/01/12 08:41:35;;;;;;;21.23;13.93;;;0.60;99.90;;;;;;4950239;29;20054;-79
2022/01/12 08:44:01;;;;;;;23.80;14.82;;;0.60;99.90;;;;;;4967698;29;20336;-77
2022/01/12 08:46:27;;;;;;;23.30;14.13;;;0.50;99.90;;;;;;4949153;29;20050;-79
2022/01/12 08:48:52;;;;;;;22.63;13.80;;;0.40;99.90;;;;;;4950686;29;20039;-78
2022/01/12 08:51:18;;;;;;;24.58;14.35;;;0.30;99.90;;;;;;4933505;29;20015;-78
2022/01/12 08:53:44;;;;;;;22.55;14.20;;;0.10;99.90;;;;;;4949506;29;20106;-78
2022/01/12 08:56:10;;;;;;;26.00;15.73;;;0.00;99.90;;;;;;4966689;29;20035;-77
2022/01/12 08:58:37;;;;;;;24.42;15.30;;;0.00;99.90;;;;;;4949228;29;20035;-78
2022/01/12 09:01:04;;;;;;;23.48;14.15;;;0.10;99.90;;;;;;4966635;28;20035;-77
2022/01/12 09:03:30;;;;;;;26.10;15.07;;;0.10;99.90;;;;;;4976061;28;20095;-76
2022/01/12 09:05:57;;;;;;;26.95;15.55;;;0.10;99.90;;;;;;4955198;28;20086;-77
2022/01/12 09:08:23;;;;;;;27.02;15.60;;;0.10;99.90;;;;;;4965864;28;20031;-78
2022/01/12 09:10:49;;;;;;;24.58;14.88;;;0.10;99.90;;;;;;4976886;28;20137;-77
2022/01/12 09:13:15;;;;;;;27.50;15.50;;;0.00;99.90;;;;;;4968911;28;20264;-76
2022/01/12 09:15:40;;;;;;;24.08;15.00;;;0.00;99.90;;;;;;4971383;28;20365;-77
2022/01/12 09:18:06;;;;;;;26.08;15.07;;;0.00;99.90;;;;;;4985497;28;20162;-77
2022/01/12 09:20:32;;;;;;;25.33;15.70;;;0.00;99.90;;;;;;4967561;28;20062;-77
2022/01/12 09:22:58;;;;;;;30.15;16.50;;;0.00;99.90;;;;;;4985036;28;20111;-78
2022/01/12 09:25:24;;;;;;;24.95;15.45;;;0.00;99.90;;;;;;4984894;28;20065;-77
2022/01/12 09:27:50;;;;;;;28.35;16.80;;;0.10;99.90;;;;;;4968320;28;20213;-77
2022/01/12 09:30:18;;;;;;;23.58;14.88;;;0.20;99.90;;;;;;4967152;28;20037;-77
2022/01/12 09:32:45;;;;;;;24.33;14.70;;;0.30;99.90;;;;;;4969780;28;20290;-78
2022/01/12 09:35:12;;;;;;;25.98;15.68;;;0.60;99.90;;;;;;4966005;28;20042;-77
2022/01/12 09:37:38;;;;;;;26.48;15.13;;;0.80;99.90;;;;;;4965578;28;20047;-79
2022/01/12 09:40:05;;;;;;;24.90;14.48;;;0.80;99.90;;;;;;4966109;29;20204;-79
2022/01/12 09:42:32;;;;;;;27.92;15.50;;;1.00;99.90;;;;;;4948653;29;20306;-79
2022/01/12 09:44:58;;;;;;;24.90;13.95;;;1.10;99.90;;;;;;4966152;29;20035;-80
2022/01/12 09:47:24;;;;;;;23.48;14.05;;;1.10;99.90;;;;;;4947762;29;20041;-79
2022/01/12 09:49:50;;;;;;;28.02;14.60;;;1.20;99.90;;;;;;4966209;28;20062;-80
2022/01/12 09:52:15;;;;;;;28.67;14.90;;;1.20;99.90;;;;;;4968094;28;20090;-79
2022/01/12 09:54:42;;;;;;;20.17;12.40;;;1.10;99.90;;;;;;4985011;28;20043;-80
2022/01/12 09:57:08;;;;;;;21.35;13.68;;;1.30;99.90;;;;;;4984828;28;20044;-79
2022/01/12 09:59:35;;;;;;;20.92;12.98;;;1.50;99.90;;;;;;4984798;28;20058;-77
2022/01/12 10:02:02;;;;;;;22.03;12.70;;;1.60;99.90;;;;;;4984241;28;20106;-78
2022/01/12 10:04:30;;;;;;;24.88;13.52;;;1.70;99.90;;;;;;4967181;28;20111;-79
2022/01/12 10:07:01;;;;;;;17.63;11.20;;;1.80;99.90;;;;;;4985110;28;20150;-77
2022/01/12 10:09:39;;;;;;;19.35;11.93;;;1.80;99.90;;;;;;4984139;28;20329;-78
2022/01/12 10:12:15;;;;;;;20.73;12.43;;;1.80;99.90;;;;;;4965708;29;20032;-78
2022/01/12 10:14:50;;;;;;;19.05;11.82;;;1.80;99.90;;;;;;4948831;28;20039;-78
2022/01/12 10:17:18;;;;;;;20.05;12.15;;;1.80;99.90;;;;;;4967328;28;20111;-78
2022/01/12 10:19:44;;;;;;;19.17;11.68;;;2.00;99.90;;;;;;4984517;28;20082;-79
2022/01/12 10:22:14;;;;;;;18.70;11.68;;;2.00;99.90;;;;;;4983421;28;20023;-79
2022/01/12 10:24:42;;;;;;;18.77;12.27;;;2.10;99.90;;;;;;4951709;28;20348;-78
2022/01/12 10:27:15;;;;;;;15.77;10.65;;;2.20;99.90;;;;;;4984324;28;20038;-79
2022/01/12 10:29:42;;;;;;;17.98;11.70;;;2.30;99.90;;;;;;4950127;28;20034;-79
2022/01/12 10:32:10;;;;;;;19.77;11.50;;;2.40;99.90;;;;;;4979742;28;20038;-79
2022/01/12 10:34:43;;;;;;;15.55;10.43;;;2.50;99.90;;;;;;4966760;28;20061;-78
2022/01/12 10:37:12;;;;;;;17.60;10.98;;;2.80;99.90;;;;;;4984173;28;20039;-78
2022/01/12 10:39:44;;;;;;;16.90;10.38;;;2.80;99.90;;;;;;4983012;28;20022;-79
2022/01/12 10:42:13;;;;;;;17.13;11.07;;;2.70;99.90;;;;;;4983704;28;20038;-79
2022/01/12 10:44:44;;;;;;;17.00;10.63;;;2.50;99.90;;;;;;4950507;28;20027;-79
2022/01/12 10:47:29;;;;;;;17.98;11.85;;;2.40;99.90;;;;;;4983199;28;20106;-80
2022/01/12 10:49:55;;;;;;;18.88;11.48;;;2.30;99.90;;;;;;4987368;28;20023;-79
2022/01/12 10:52:31;;;;;;;18.55;11.48;;;2.70;99.90;;;;;;4951653;28;20057;-79
2022/01/12 10:54:59;;;;;;;19.67;11.07;;;3.20;99.90;;;;;;4967836;28;20041;-78
2022/01/12 10:57:25;;;;;;;;;;;3.90;99.90;;;;;;4967218;28;20034;-79
2022/01/12 11:00:10;;;;;;;16.33;10.70;;;4.40;99.90;;;;;;4984458;28;20215;-79
2022/01/12 11:02:38;;;;;;;16.20;10.45;;;4.90;99.90;;;;;;4983478;28;20051;-80
2022/01/12 11:05:05;;;;;;;19.35;10.50;;;5.40;99.90;;;;;;4967041;28;20054;-78
2022/01/12 11:07:31;;;;;;;17.98;10.35;;;6.00;99.90;;;;;;4966068;28;20054;-78
2022/01/12 11:10:00;;;;;;;15.15;9.85;;;6.50;99.90;;;;;;4983251;28;20065;-77
2022/01/12 11:12:27;;;;;;;15.45;10.35;;;6.80;99.90;;;;;;4983344;28;20031;-79
2022/01/12 11:14:53;;;;;;;15.07;9.85;;;7.30;99.90;;;;;;4983296;28;20030;-78
2022/01/12 11:17:19;;;;;;;12.90;9.25;;;7.00;99.90;;;;;;4982868;28;20261;-80
2022/01/12 11:20:08;;;;;;;13.43;9.18;;;7.60;99.90;;;;;;4966376;28;20023;-80
2022/01/12 11:22:40;;;;;;;13.93;9.45;;;8.20;99.60;;;;;;4968438;28;20030;-80
2022/01/12 11:25:29;;;;;;;15.98;9.93;;;8.90;98.20;;;;;;4950664;28;20030;-78
2022/01/12 11:28:06;;;;;;;11.93;8.85;;;9.30;97.10;;;;;;4950461;28;20278;-79
2022/01/12 11:30:33;;;;;;;12.03;8.53;;;9.10;96.90;;;;;;4982851;28;20049;-79
2022/01/12 11:33:03;;;;;;;11.68;8.70;;;9.80;96.30;;;;;;4983545;28;20030;-78
2022/01/12 11:35:36;;;;;;;10.88;8.27;;;9.70;95.40;;;;;;4983058;28;20231;-78
2022/01/12 11:38:04;;;;;;;9.95;8.00;;;10.40;94.90;;;;;;4983516;28;20046;-78
2022/01/12 11:40:35;;;;;;;9.68;7.40;;;10.70;94.00;;;;;;4966191;28;20213;-78
2022/01/12 11:43:02;;;;;;;10.30;7.40;;;11.20;93.70;;;;;;4966308;28;20031;-79
2022/01/12 11:45:27;;;;;;;10.05;7.30;;;12.00;92.70;;;;;;4965553;28;20054;-80
2022/01/12 11:47:53;;;;;;;11.85;7.82;;;12.30;91.90;;;;;;4966267;28;20329;-78
2022/01/12 11:50:19;;;;;;;9.82;7.72;;;12.30;90.90;;;;;;4966166;28;20081;-79
2022/01/12 11:52:45;;;;;;;11.35;8.30;;;11.90;90.90;;;;;;4965854;28;20141;-78
2022/01/12 11:55:17;;;;;;;11.40;7.85;;;12.70;90.20;;;;;;4966616;28;20130;-79
2022/01/12 11:57:50;;;;;;;10.30;8.38;;;13.60;90.00;;;;;;4950127;28;20054;-79
2022/01/12 12:00:29;;;;;;;11.57;8.50;;;14.20;89.50;;;;;;4984642;28;20345;-78
2022/01/12 12:02:55;;;;;;;11.57;8.50;;;14.10;87.70;;;;;;4969541;28;20027;-78
2022/01/12 12:05:23;;;;;;;13.18;9.10;;;13.80;85.70;;;;;;4970269;28;20082;-78
2022/01/12 12:08:03;;;;;;;11.30;9.20;;;12.80;86.20;;;;;;4986661;28;20034;-78
2022/01/12 12:10:40;;;;;;;13.68;9.10;;;12.90;88.00;;;;;;4986203;28;20038;-79
2022/01/12 12:13:07;;;;;;;13.52;8.40;;;12.80;89.40;;;;;;4987532;28;20266;-79
2022/01/12 12:15:34;;;;;;;10.18;7.78;;;13.10;87.70;;;;;;4968752;28;20074;-77
2022/01/12 12:18:04;;;;;;;12.40;8.30;;;13.50;87.40;;;;;;4987448;28;20150;-79
2022/01/12 12:20:34;;;;;;;11.07;8.63;;;14.10;86.60;;;;;;4986818;28;20031;-79
2022/01/12 12:23:01;;;;;;;10.30;8.00;;;13.80;83.40;;;;;;4960429;28;20031;-78
2022/01/12 12:25:29;;;;;;;9.98;7.82;;;13.30;83.50;;;;;;4951890;29;20210;-79
2022/01/12 12:27:58;;;;;;;11.43;7.97;;;13.00;85.00;;;;;;4935338;29;20106;-78
2022/01/12 12:30:25;;;;;;;;;;;13.60;83.70;;;;;;4951441;28;20117;-79
2022/01/12 12:32:57;;;;;;;9.43;8.02;;;13.60;83.50;;;;;;4951396;29;20092;-78
2022/01/12 12:35:31;;;;;;;10.52;7.60;;;14.10;82.10;;;;;;4968202;29;20039;-79
2022/01/12 12:38:01;;;;;;;10.20;7.90;;;14.00;82.40;;;;;;4953712;29;20046;-79
2022/01/12 12:40:35;;;;;;;11.60;8.75;;;13.40;82.30;;;;;;4952453;29;20336;-78
2022/01/12 12:43:05;;;;;;;8.63;7.10;;;13.50;82.00;;;;;;4968737;29;20059;-79
2022/01/12 12:45:39;;;;;;;10.45;7.53;;;13.20;82.50;;;;;;4950794;29;20215;-79
2022/01/12 12:48:07;;;;;;;11.05;8.20;;;13.00;83.10;;;;;;4951923;29;20202;-79
2022/01/12 12:50:33;;;;;;;9.50;7.50;;;12.50;83.10;;;;;;4968161;29;20099;-80
2022/01/12 12:53:00;;;;;;;12.50;8.40;;;12.20;84.30;;;;;;4951430;29;20031;-79
2022/01/12 12:55:26;;;;;;;10.35;8.00;;;12.70;83.90;;;;;;4967739;29;20039;-78
2022/01/12 12:57:54;;;;;;;10.40;8.23;;;12.30;83.40;;;;;;4967762;29;20122;-78
2022/01/12 13:00:25;;;;;;;11.07;8.45;;;12.00;85.40;;;;;;4950075;28;20025;-79
2022/01/12 13:02:57;;;;;;;11.32;8.77;;;12.30;84.80;;;;;;4950691;29;20033;-78
2022/01/12 13:05:33;;;;;;;11.82;8.93;;;12.50;84.60;;;;;;4950594;29;20226;-79
2022/01/12 13:07:59;;;;;;;11.77;9.35;;;11.40;85.10;;;;;;4967925;29;20325;-79
2022/01/12 13:10:29;;;;;;;12.18;8.80;;;11.20;85.60;;;;;;4950177;29;20019;-78
2022/01/12 13:13:04;;;;;;;15.82;9.40;;;10.70;86.80;;;;;;4967944;29;20097;-78
2022/01/12 13:15:38;;;;;;;10.63;8.02;;;10.50;88.50;;;;;;4949799;29;20050;-78
2022/01/12 13:18:10;;;;;;;12.30;9.23;;;10.50;89.20;;;;;;4934484;29;20035;-77
2022/01/12 13:21:12;;;;;;;12.45;9.38;;;10.20;88.10;;;;;;4967368;29;20038;-80
2022/01/12 13:23:40;;;;;;;12.05;9.18;;;10.60;88.40;;;;;;4933539;29;20023;-78
2022/01/12 13:26:07;;;;;;;;;;;10.90;87.30;;;;;;4967011;29;20063;-79
2022/01/12 13:28:35;;;;;;;12.38;8.18;;;10.80;88.90;;;;;;4965770;29;19906;-79
2022/01/12 13:31:05;;;;;;;11.93;8.65;;;10.20;90.10;;;;;;4948640;29;20043;-79
2022/01/12 13:33:42;;;;;;;13.45;8.88;;;10.30;89.70;;;;;;4965908;29;20023;-78
2022/01/12 13:36:14;;;;;;;12.50;8.77;;;10.10;89.90;;;;;;4930146;29;20055;-78
2022/01/12 13:38:41;;;;;;;11.73;8.15;;;9.70;90.30;;;;;;4962305;29;20348;-79
2022/01/12 13:41:09;;;;;;;13.07;8.73;;;9.40;91.00;;;;;;4948976;29;20083;-79
2022/01/12 13:43:35;;;;;;;12.50;8.50;;;9.20;91.50;;;;;;4944858;29;20082;-79
2022/01/12 13:46:17;;;;;;;13.32;8.30;;;8.70;92.10;;;;;;4944929;29;20036;-80
2022/01/12 13:51:38;;;;;;;18.63;8.80;;;8.80;92.30;;;;;;4945494;29;20028;-79
2022/01/12 13:54:05;;;;;;;11.73;8.02;;;9.00;91.80;;;;;;4944858;29;20036;-79
2022/01/12 13:56:43;;;;;;;13.52;8.85;;;8.20;92.60;;;;;;4928072;29;20038;-80
2022/01/12 13:59:10;;;;;;;13.43;8.50;;;7.60;93.30;;;;;;4944844;29;20103;-79
2022/01/12 14:01:38;;;;;;;10.63;8.23;;;8.10;93.50;;;;;;4945139;29;20036;-80
2022/01/12 14:04:23;;;;;;;12.05;8.07;;;8.40;92.80;;;;;;4958894;29;20031;-79
2022/01/12 14:06:52;;;;;;;13.38;8.60;;;8.50;92.50;;;;;;4964866;28;20302;-79
2022/01/12 14:11:50;;;;;;;12.00;7.97;;;9.50;91.30;;;;;;4968246;28;20600;-79
2022/01/12 14:14:17;;;;;;;13.60;8.48;;;9.00;92.00;;;;;;4965124;28;20043;-79
2022/01/12 14:16:43;;;;;;;13.90;8.20;;;9.10;92.00;;;;;;4947048;29;20106;-80